Time;durP1;ratioP1;P1;durP2;ratioP2;P2;SDS_P1;SDS_P2;PMS_P1;PMS_P2;Temp;Humidity;BMP_temperature;BMP_pressure;BME280_temperature;BME280_humidity;BME280_pressure;Samples;Min_cycle;Max_cycle;Signal;HPM_P1;HPM_P2
2022/11/24 00:01:18;;;;;;;7.82;4.55;;;;;;;8.76;80.27;100317.38;4954301;28;20038;-88
2022/11/24 00:03:44;;;;;;;;;;;;;;;8.84;80.44;100333.31;4956375;28;20125;-88
2022/11/24 00:06:11;;;;;;;7.38;4.07;;;;;;;8.82;80.55;100327.38;4974036;28;19997;-88
2022/11/24 00:08:37;;;;;;;8.88;5.18;;;;;;;8.80;81.06;100315.47;4941926;28;21125;-88
2022/11/24 00:11:07;;;;;;;7.30;4.20;;;;;;;8.82;80.40;100317.06;4957805;28;20027;-88
2022/11/24 00:13:33;;;;;;;4.60;3.40;;;;;;;8.86;79.84;100326.34;4973868;28;20031;-88
2022/11/24 00:16:09;;;;;;;9.02;4.90;;;;;;;8.81;79.73;100315.41;4973919;28;20114;-89
2022/11/24 00:18:35;;;;;;;5.63;2.85;;;;;;;8.83;79.59;100317.91;4957571;28;20099;-88
2022/11/24 00:21:01;;;;;;;9.63;4.65;;;;;;;8.94;80.04;100325.13;4973784;28;20035;-89
2022/11/24 00:23:26;;;;;;;3.97;3.28;;;;;;;8.86;79.93;100310.03;4957008;28;20027;-88
2022/11/24 00:25:51;;;;;;;8.15;4.63;;;;;;;8.78;80.37;100300.06;4973656;28;20058;-88
2022/11/24 00:28:17;;;;;;;10.13;4.78;;;;;;;8.90;80.27;100316.72;4973539;28;20041;-88
2022/11/24 00:30:42;;;;;;;11.23;5.30;;;;;;;8.98;80.11;100342.16;4957131;28;20038;-88
2022/11/24 00:33:08;;;;;;;9.43;5.50;;;;;;;8.96;80.03;100349.16;4941074;28;20053;-88
2022/11/24 00:35:33;;;;;;;7.38;4.63;;;;;;;8.97;80.33;100340.50;4957076;28;20039;-88
2022/11/24 00:37:59;;;;;;;8.73;3.80;;;;;;;9.02;80.42;100339.34;4941228;28;20038;-88
2022/11/24 00:40:24;;;;;;;12.73;5.35;;;;;;;8.96;80.42;100333.66;4957027;28;20408;-88
2022/11/24 00:42:50;;;;;;;9.18;3.78;;;;;;;8.89;80.05;100326.19;4957060;28;20031;-88
2022/11/24 00:45:15;;;;;;;14.70;6.40;;;;;;;8.96;80.13;100334.50;4957177;28;20031;-88
2022/11/24 00:47:41;;;;;;;6.32;4.20;;;;;;;9.00;80.92;100359.25;4972924;28;20424;-88
2022/11/24 00:50:06;;;;;;;13.02;5.80;;;;;;;8.94;81.17;100356.09;4957340;28;20030;-88
2022/11/24 00:52:32;;;;;;;10.98;3.95;;;;;;;9.02;80.84;100360.00;4957087;28;20472;-88
2022/11/24 00:54:57;;;;;;;12.45;4.43;;;;;;;8.98;81.00;100362.81;4957382;28;20034;-88
2022/11/24 00:57:23;;;;;;;10.30;5.07;;;;;;;8.96;81.01;100369.78;4956704;28;20567;-88
2022/11/24 00:59:48;;;;;;;8.27;5.03;;;;;;;8.91;80.71;100370.81;4956950;28;20030;-88
2022/11/24 01:02:14;;;;;;;10.57;5.95;;;;;;;8.86;80.77;100354.72;4956841;28;20093;-88
2022/11/24 01:04:39;;;;;;;11.65;5.50;;;;;;;8.94;80.57;100372.41;4972646;28;20031;-88
2022/11/24 01:07:05;;;;;;;9.10;4.13;;;;;;;9.01;80.15;100370.41;4972813;28;20042;-89
2022/11/24 01:09:30;;;;;;;7.70;4.75;;;;;;;8.96;80.52;100359.47;4956705;28;20042;-88
2022/11/24 01:12:02;;;;;;;14.23;5.05;;;;;;;9.00;80.18;100355.81;4956714;28;20027;-88
2022/11/24 01:14:28;;;;;;;8.25;5.35;;;;;;;9.03;79.65;100360.84;4972240;28;20038;-89
2022/11/24 01:16:54;;;;;;;7.70;4.85;;;;;;;9.09;79.92;100373.47;4956344;28;20065;-89
2022/11/24 01:19:19;;;;;;;11.93;4.95;;;;;;;9.07;79.90;100368.38;4956352;28;20081;-89
2022/11/24 01:21:45;;;;;;;8.68;5.10;;;;;;;9.08;79.83;100375.22;4972568;28;20062;-88
2022/11/24 01:24:11;;;;;;;13.25;5.47;;;;;;;9.09;79.96;100376.03;4956466;28;20053;-88
2022/11/24 01:26:36;;;;;;;11.07;5.07;;;;;;;9.08;79.94;100372.63;4956748;28;20507;-89
2022/11/24 01:29:02;;;;;;;11.00;4.40;;;;;;;8.99;80.22;100360.16;4956436;28;20026;-88
2022/11/24 01:31:27;;;;;;;10.82;5.85;;;;;;;9.04;80.10;100367.66;4955813;28;20035;-88
2022/11/24 01:33:53;;;;;;;8.63;4.95;;;;;;;9.00;80.16;100356.66;4956083;28;20035;-88
2022/11/24 01:36:18;;;;;;;9.70;5.50;;;;;;;9.08;79.49;100374.38;4956224;28;20125;-88
2022/11/24 01:38:44;;;;;;;9.98;5.55;;;;;;;8.90;79.64;100345.94;4956258;28;20035;-88
2022/11/24 01:41:17;;;;;;;12.30;5.70;;;;;;;9.02;80.36;100379.81;4972048;28;20039;-88
2022/11/24 01:43:43;;;;;;;11.18;4.97;;;;;;;9.12;79.95;100387.03;4955305;28;20038;-88
2022/11/24 01:46:40;;;;;;;12.13;4.95;;;;;;;9.15;79.31;100380.94;4956438;28;20031;-88
2022/11/24 01:49:37;;;;;;;10.80;4.72;;;;;;;9.07;79.32;100375.28;4955878;28;20041;-88
2022/11/24 01:52:14;;;;;;;13.30;5.63;;;;;;;9.03;79.64;100378.91;4958277;28;20034;-89
2022/11/24 01:54:52;;;;;;;8.80;4.60;;;;;;;8.85;79.75;100363.38;4957282;28;20045;-89
2022/11/24 01:57:25;;;;;;;9.38;5.50;;;;;;;9.00;80.25;100379.06;4956067;28;20061;-88
2022/11/24 01:59:53;;;;;;;12.45;4.32;;;;;;;8.93;80.99;100383.66;4939557;28;20070;-88
2022/11/24 02:02:19;;;;;;;9.95;5.22;;;;;;;8.66;80.79;100334.19;4956019;28;20066;-88
2022/11/24 02:04:44;;;;;;;8.38;4.45;;;;;;;8.72;81.07;100359.66;4939706;28;20477;-87
2022/11/24 02:07:10;;;;;;;9.65;4.40;;;;;;;8.82;80.98;100378.97;4971744;28;20022;-87
2022/11/24 02:09:48;;;;;;;8.30;4.82;;;;;;;8.99;81.59;100405.75;4939483;28;20027;-88
2022/11/24 02:12:13;;;;;;;5.40;3.17;;;;;;;8.86;81.04;100390.84;4972597;28;20031;-88
2022/11/24 02:14:39;;;;;;;14.40;4.68;;;;;;;8.95;81.94;100419.69;4955176;28;20042;-87
2022/11/24 02:17:05;;;;;;;6.70;4.80;;;;;;;8.86;82.16;100416.66;4971844;28;20503;-87
2022/11/24 02:19:36;;;;;;;9.18;3.53;;;;;;;8.81;82.14;100413.41;4955196;28;20019;-87
2022/11/24 02:22:02;;;;;;;10.48;3.45;;;;;;;8.72;83.48;100413.81;4972520;28;21225;-88
2022/11/24 02:24:39;;;;;;;7.97;4.32;;;;;;;8.73;83.26;100425.81;4955152;28;20061;-88
2022/11/24 02:27:04;;;;;;;4.03;3.28;;;;;;;8.69;83.30;100415.72;4970612;28;20022;-88
2022/11/24 02:29:30;;;;;;;7.53;5.28;;;;;;;8.73;83.18;100412.91;4954789;28;20034;-89
2022/11/24 02:31:58;;;;;;;6.68;4.35;;;;;;;8.77;82.75;100427.38;4955004;28;20030;-88
2022/11/24 02:34:23;;;;;;;7.28;5.10;;;;;;;8.69;82.76;100403.66;4955083;28;20030;-87
2022/11/24 02:36:49;;;;;;;6.72;3.97;;;;;;;8.86;81.14;100428.72;4939288;28;20022;-88
2022/11/24 02:39:15;;;;;;;10.55;5.00;;;;;;;8.67;81.27;100418.38;4939174;28;20031;-88
2022/11/24 02:42:04;;;;;;;7.75;4.32;;;;;;;8.76;81.51;100430.88;4938852;28;20038;-88
2022/11/24 02:44:32;;;;;;;8.85;4.63;;;;;;;8.72;81.92;100433.63;4968371;28;20064;-87
2022/11/24 02:47:08;;;;;;;4.93;3.70;;;;;;;8.68;80.86;100425.19;4939129;28;20086;-89
2022/11/24 02:49:34;;;;;;;8.10;2.72;;;;;;;8.58;81.10;100426.50;4955047;28;20037;-88
2022/11/24 02:52:00;;;;;;;6.25;4.00;;;;;;;8.70;80.63;100448.34;4954743;28;20027;-89
2022/11/24 02:54:25;;;;;;;4.07;3.17;;;;;;;8.59;79.42;100435.91;4955299;28;20057;-89
2022/11/24 02:56:51;;;;;;;5.13;3.15;;;;;;;8.52;79.03;100439.66;4954705;28;20535;-89
2022/11/24 02:59:16;;;;;;;4.63;3.33;;;;;;;8.46;79.71;100455.41;4954891;28;20489;-89
2022/11/24 03:01:42;;;;;;;3.15;1.70;;;;;;;8.42;77.90;100451.28;4954728;28;20038;-89
2022/11/24 03:04:07;;;;;;;5.13;2.25;;;;;;;8.41;78.03;100459.91;4954592;28;20035;-89
2022/11/24 03:06:33;;;;;;;3.00;2.17;;;;;;;8.38;77.58;100452.31;4970827;28;20038;-88
2022/11/24 03:08:58;;;;;;;4.07;2.10;;;;;;;8.36;76.67;100461.81;4972132;28;20035;-89
2022/11/24 03:11:24;;;;;;;0.82;0.63;;;;;;;8.28;76.37;100464.72;4954485;28;20041;-89
2022/11/24 03:13:50;;;;;;;2.38;1.85;;;;;;;8.23;76.66;100462.31;4938937;28;20042;-89
2022/11/24 03:16:15;;;;;;;1.25;1.05;;;;;;;8.18;77.64;100464.25;4954710;28;20557;-88
2022/11/24 03:18:41;;;;;;;2.33;1.40;;;;;;;8.01;76.95;100451.22;4954754;28;20054;-89
2022/11/24 03:21:06;;;;;;;2.55;1.42;;;;;;;7.94;76.45;100450.63;4938755;28;20030;-89
2022/11/24 03:23:32;;;;;;;1.20;1.10;;;;;;;8.01;76.64;100458.97;4970625;28;20484;-89
2022/11/24 03:26:14;;;;;;;0.80;0.52;;;;;;;7.95;77.51;100456.63;4954324;28;20027;-89
2022/11/24 03:28:39;;;;;;;1.20;1.10;;;;;;;7.76;77.23;100426.47;4970747;28;20082;-88
2022/11/24 03:31:06;;;;;;;1.23;0.65;;;;;;;8.00;77.13;100475.31;4970643;28;20461;-88
2022/11/24 03:33:31;;;;;;;1.58;1.00;;;;;;;8.02;77.18;100478.66;4954655;28;20113;-88
2022/11/24 03:35:57;;;;;;;4.03;0.80;;;;;;;8.02;77.24;100479.50;4954579;28;20178;-89
2022/11/24 03:38:22;;;;;;;1.88;1.55;;;;;;;7.95;77.73;100478.06;4939849;28;20045;-88
2022/11/24 03:40:48;;;;;;;1.45;1.05;;;;;;;7.78;77.27;100464.22;4942046;28;20038;-88
2022/11/24 03:43:13;;;;;;;1.15;1.05;;;;;;;7.94;77.36;100484.13;4973912;28;20067;-88
2022/11/24 03:45:39;;;;;;;1.02;0.80;;;;;;;7.79;76.80;100455.59;4958366;28;20058;-88
2022/11/24 03:48:05;;;;;;;1.60;1.20;;;;;;;7.94;76.85;100481.53;4942334;28;20019;-89
2022/11/24 03:50:31;;;;;;;1.02;0.95;;;;;;;7.97;76.79;100488.34;4957964;28;20714;-87
2022/11/24 03:52:56;;;;;;;0.98;0.88;;;;;;;7.94;77.00;100478.97;4958241;28;20062;-91
2022/11/24 03:55:22;;;;;;;2.53;1.63;;;;;;;7.89;77.46;100477.50;4974423;28;20101;-90
2022/11/24 03:57:47;;;;;;;1.58;1.38;;;;;;;7.86;78.49;100493.06;4942440;28;20030;-90
2022/11/24 04:00:13;;;;;;;0.82;0.82;;;;;;;7.78;77.59;100479.66;4974745;28;20031;-89
2022/11/24 04:02:39;;;;;;;1.42;1.33;;;;;;;7.96;77.74;100502.09;4974525;28;20042;-90
2022/11/24 04:05:05;;;;;;;2.88;1.63;;;;;;;7.81;78.04;100495.81;4958617;28;20544;-91
2022/11/24 04:07:30;;;;;;;1.45;1.35;;;;;;;7.78;78.47;100490.81;4958538;28;20038;-93
2022/11/24 04:09:55;;;;;;;2.58;1.55;;;;;;;8.05;78.79;100506.88;4958133;28;20043;-88
2022/11/24 04:15:05;;;;;;;1.70;1.02;;;;;;;8.05;77.24;100509.44;4960393;28;20047;-89
2022/11/24 04:17:31;;;;;;;1.45;1.15;;;;;;;8.09;75.21;100513.59;4958073;28;20123;-89
2022/11/24 04:19:56;;;;;;;1.27;0.73;;;;;;;7.98;75.44;100502.88;4957843;28;20031;-90
2022/11/24 04:22:21;;;;;;;1.05;0.82;;;;;;;7.93;75.19;100520.25;4957909;28;20054;-89
2022/11/24 04:24:47;;;;;;;2.17;0.93;;;;;;;8.04;75.17;100533.53;4957570;28;20047;-90
2022/11/24 04:27:12;;;;;;;2.90;1.73;;;;;;;7.88;76.03;100524.75;4957891;28;20489;-89
2022/11/24 04:29:38;;;;;;;0.82;0.65;;;;;;;7.82;76.01;100525.00;4957774;28;20086;-89
2022/11/24 04:32:04;;;;;;;1.00;0.85;;;;;;;7.98;76.53;100550.09;4941705;28;20026;-90
2022/11/24 04:34:29;;;;;;;2.60;0.80;;;;;;;7.91;76.11;100537.50;4963721;28;20034;-88
2022/11/24 04:36:55;;;;;;;2.08;1.48;;;;;;;7.90;76.38;100551.28;4972156;28;20027;-89
2022/11/24 04:39:20;;;;;;;1.20;0.80;;;;;;;7.77;76.01;100550.94;4973125;28;20428;-89
2022/11/24 04:41:46;;;;;;;2.10;1.20;;;;;;;7.77;75.87;100553.50;4957173;28;20023;-88
2022/11/24 04:44:11;;;;;;;2.40;1.55;;;;;;;7.70;77.50;100565.78;4972808;28;20054;-89
2022/11/24 04:46:37;;;;;;;1.67;1.33;;;;;;;7.69;76.58;100566.66;4957108;28;20033;-88
2022/11/24 04:49:03;;;;;;;0.88;0.75;;;;;;;7.54;76.73;100574.97;4956231;28;20050;-89
2022/11/24 04:51:28;;;;;;;1.77;1.20;;;;;;;7.34;77.15;100551.69;4972712;28;20109;-86
2022/11/24 04:53:53;;;;;;;1.65;0.82;;;;;;;7.53;77.94;100583.56;4973066;28;20035;-87
2022/11/24 04:56:19;;;;;;;1.02;0.65;;;;;;;7.55;76.13;100591.25;4989435;28;20489;-87
2022/11/24 04:58:47;;;;;;;1.15;0.70;;;;;;;7.49;76.78;100587.19;4956753;28;20073;-84
2022/11/24 05:01:13;;;;;;;12.65;3.35;;;;;;;7.51;76.53;100587.13;4956259;28;20035;-84
2022/11/24 05:03:39;;;;;;;2.20;1.17;;;;;;;7.30;76.78;100568.16;4988605;28;20504;-84
2022/11/24 05:06:05;;;;;;;1.73;1.23;;;;;;;7.22;76.77;100573.56;4972642;28;20093;-84
2022/11/24 05:08:30;;;;;;;3.17;0.93;;;;;;;7.23;76.73;100585.53;4969946;28;20081;-84
2022/11/24 05:10:56;;;;;;;2.25;1.23;;;;;;;7.34;77.19;100598.00;4956393;28;20416;-86
2022/11/24 05:13:22;;;;;;;2.58;1.55;;;;;;;10.24;69.53;100596.22;4971667;28;20039;-87
2022/11/24 05:15:47;;;;;;;4.38;2.75;;;;;;;9.15;68.87;100592.56;4954927;28;20058;-86
2022/11/24 05:18:16;;;;;;;5.30;2.63;;;;;;;8.61;70.70;100594.81;4988441;28;20114;-86
2022/11/24 05:20:44;;;;;;;1.38;0.75;;;;;;;8.30;71.93;100602.94;4972440;28;20022;-86
2022/11/24 05:23:10;;;;;;;1.80;1.27;;;;;;;8.09;73.68;100614.09;4972017;28;20045;-88
2022/11/24 05:25:35;;;;;;;3.60;1.42;;;;;;;7.87;74.91;100619.22;4955563;28;20046;-91
2022/11/24 05:28:02;;;;;;;3.78;1.85;;;;;;;7.79;76.02;100628.13;4973073;28;20039;-92
2022/11/24 05:30:27;;;;;;;3.05;1.50;;;;;;;7.62;75.66;100619.28;4972201;28;20030;-84
2022/11/24 05:32:53;;;;;;;2.13;1.20;;;;;;;7.17;77.14;100576.28;4986827;28;20085;-82
2022/11/24 05:35:19;;;;;;;3.78;1.55;;;;;;;7.31;78.00;100604.13;4971844;28;20501;-84
2022/11/24 05:37:44;;;;;;;5.38;2.65;;;;;;;7.48;78.88;100629.25;4970735;28;20081;-88
2022/11/24 05:40:10;;;;;;;3.45;2.25;;;;;;;7.37;78.43;100597.91;4988376;28;20030;-86
2022/11/24 05:42:41;;;;;;;2.42;1.50;;;;;;;7.48;78.35;100639.56;4971841;28;20031;-89
2022/11/24 05:45:11;;;;;;;4.43;1.67;;;;;;;7.37;78.29;100633.91;4972234;28;20034;-85
2022/11/24 05:47:37;;;;;;;5.95;2.83;;;;;;;7.40;78.70;100650.13;4960961;28;20121;-85
2022/11/24 05:50:03;;;;;;;4.78;1.90;;;;;;;7.28;77.82;100636.84;4970278;28;20100;-86
2022/11/24 05:52:28;;;;;;;3.25;1.50;;;;;;;7.33;77.80;100637.50;4971288;28;20497;-85
2022/11/24 05:54:54;;;;;;;3.08;2.00;;;;;;;7.30;78.72;100650.50;4968326;28;20070;-90
2022/11/24 05:57:19;;;;;;;2.05;1.73;;;;;;;7.32;79.00;100657.25;4952863;28;20473;-90
2022/11/24 05:59:45;;;;;;;3.53;2.22;;;;;;;7.21;78.49;100658.53;4939683;28;20034;-93
2022/11/24 06:02:10;;;;;;;4.22;2.50;;;;;;;7.06;79.19;100637.56;4963461;28;20551;-86
2022/11/24 06:04:36;;;;;;;4.18;1.67;;;;;;;7.31;78.75;100665.03;4950644;29;20024;-89
2022/11/24 06:07:02;;;;;;;3.55;2.53;;;;;;;7.35;78.82;100671.75;4952334;29;20031;-88
2022/11/24 06:09:28;;;;;;;10.15;1.95;;;;;;;7.38;79.45;100671.66;4951521;29;20023;-89
2022/11/24 06:11:53;;;;;;;1.83;1.33;;;;;;;7.40;80.09;100675.84;4937557;28;20041;-86
2022/11/24 06:14:19;;;;;;;2.95;1.48;;;;;;;7.43;78.84;100674.91;4970301;28;20393;-86
2022/11/24 06:16:44;;;;;;;9.63;4.38;;;;;;;7.40;78.43;100675.00;4971567;28;20038;-93
2022/11/24 06:19:10;;;;;;;3.65;1.80;;;;;;;7.46;78.33;100685.91;4970450;28;20046;-87
2022/11/24 06:21:35;;;;;;;4.60;3.10;;;;;;;7.44;76.81;100692.03;4986899;28;20041;-89
2022/11/24 06:24:01;;;;;;;4.38;2.45;;;;;;;7.52;76.88;100704.63;4955320;28;20043;-93
2022/11/24 06:26:27;;;;;;;4.30;2.85;;;;;;;7.48;77.90;100697.03;4986591;28;20038;-92
2022/11/24 06:28:52;;;;;;;5.13;2.00;;;;;;;7.54;77.35;100708.81;4971454;28;20121;-89
2022/11/24 06:31:18;;;;;;;7.10;4.00;;;;;;;7.63;76.61;100712.81;4971241;28;20031;-91
2022/11/24 06:33:43;;;;;;;7.28;2.92;;;;;;;7.43;75.91;100692.91;4969330;28;20038;-90
2022/11/24 06:36:09;;;;;;;3.53;2.40;;;;;;;7.31;75.99;100678.75;4970737;28;20386;-85
2022/11/24 06:38:35;;;;;;;3.45;2.15;;;;;;;7.46;77.19;100715.97;4971429;28;20113;-89
2022/11/24 06:41:01;;;;;;;4.50;2.92;;;;;;;7.45;76.98;100719.44;4955525;28;20501;-89
2022/11/24 06:43:28;;;;;;;2.13;1.77;;;;;;;7.49;77.98;100731.31;4987986;28;20105;-82
2022/11/24 06:45:54;;;;;;;4.45;2.42;;;;;;;7.51;76.89;100713.25;4988084;28;20086;-91
2022/11/24 06:48:19;;;;;;;7.32;2.83;;;;;;;7.64;77.67;100741.06;4972131;28;20031;-91
2022/11/24 06:50:44;;;;;;;6.50;3.20;;;;;;;7.59;77.96;100716.41;4970345;28;20035;-83
2022/11/24 06:53:11;;;;;;;7.63;4.20;;;;;;;7.68;78.91;100736.69;4972352;28;20466;-87
2022/11/24 06:55:37;;;;;;;7.22;3.63;;;;;;;7.54;79.11;100724.28;4970719;28;20023;-92
2022/11/24 06:58:03;;;;;;;7.00;3.85;;;;;;;7.76;79.03;100732.06;4969727;28;20037;-83
2022/11/24 07:00:30;;;;;;;8.15;4.82;;;;;;;7.79;78.47;100739.72;4970051;28;20031;-84
2022/11/24 07:02:57;;;;;;;9.93;4.78;;;;;;;7.88;77.11;100728.25;4970241;28;20041;-94
2022/11/24 07:05:23;;;;;;;9.43;6.53;;;;;;;7.93;77.63;100744.34;4970409;28;20035;-96
2022/11/24 07:07:48;;;;;;;5.32;3.00;;;;;;;8.00;75.23;100738.94;4960006;28;20046;-95
2022/11/24 07:10:14;;;;;;;4.72;2.38;;;;;;;7.88;75.04;100730.81;4955215;28;20085;-87
2022/11/24 07:12:39;;;;;;;2.60;2.22;;;;;;;7.99;75.11;100737.25;4968364;28;20054;-93
2022/11/24 07:15:05;;;;;;;10.30;2.70;;;;;;;7.91;74.20;100722.97;4969832;28;20109;-87
2022/11/24 07:17:35;;;;;;;7.03;3.35;;;;;;;8.10;73.57;100747.16;4987236;28;20080;-89
2022/11/24 07:20:01;;;;;;;4.60;2.67;;;;;;;8.16;74.28;100744.38;4970642;28;20033;-94
2022/11/24 07:22:26;;;;;;;13.80;4.57;;;;;;;8.20;74.05;100740.78;4970686;28;20548;-93
2022/11/24 07:24:52;;;;;;;7.38;3.65;;;;;;;8.25;73.24;100744.00;4973479;28;20110;-93
2022/11/24 07:27:17;;;;;;;4.82;3.53;;;;;;;8.50;77.17;100753.44;4972441;28;20081;-89
2022/11/24 07:29:43;;;;;;;4.47;2.97;;;;;;;8.37;72.18;100736.78;4968031;28;20140;-90
2022/11/24 07:32:08;;;;;;;7.30;3.58;;;;;;;8.45;73.03;100751.03;4969335;28;20093;-87
2022/11/24 07:34:34;;;;;;;9.18;4.22;;;;;;;8.51;71.06;100745.66;4970163;28;20026;-87
2022/11/24 07:36:59;;;;;;;6.68;3.13;;;;;;;8.57;71.78;100744.59;4970474;28;20034;-93
2022/11/24 07:39:25;;;;;;;6.15;3.10;;;;;;;8.60;71.80;100752.19;4987096;28;20031;-88
2022/11/24 07:41:50;;;;;;;14.05;7.55;;;;;;;8.66;72.09;100754.53;4971496;28;20061;-86
2022/11/24 07:44:16;;;;;;;8.45;5.22;;;;;;;8.67;71.91;100745.06;4965985;28;20024;-86
2022/11/24 07:46:41;;;;;;;7.85;4.95;;;;;;;8.67;70.51;100747.66;4966343;28;20054;-84
2022/11/24 07:49:07;;;;;;;11.00;5.68;;;;;;;8.73;70.57;100750.81;4950753;28;20110;-95
2022/11/24 07:51:32;;;;;;;8.52;3.97;;;;;;;8.72;70.33;100738.81;4919882;29;20413;-89
2022/11/24 07:53:58;;;;;;;4.47;3.60;;;;;;;8.60;69.42;100736.72;4950920;28;20027;-89
2022/11/24 07:56:23;;;;;;;8.70;4.45;;;;;;;8.62;69.58;100742.66;4932762;28;20581;-89
2022/11/24 07:58:49;;;;;;;7.68;4.32;;;;;;;8.62;68.79;100742.66;4969731;28;20089;-91
2022/11/24 08:01:15;;;;;;;6.80;4.28;;;;;;;8.51;68.62;100725.00;4953214;28;20693;-88
2022/11/24 08:03:41;;;;;;;4.50;3.13;;;;;;;8.48;68.99;100734.63;4985420;28;20556;-89
2022/11/24 08:06:07;;;;;;;8.07;3.47;;;;;;;8.40;68.75;100742.63;4970274;28;20023;-92
2022/11/24 08:08:32;;;;;;;2.42;1.80;;;;;;;8.05;68.32;100690.63;4953664;28;20053;-82
2022/11/24 08:11:03;;;;;;;6.05;3.10;;;;;;;8.32;68.52;100742.06;4969221;28;20035;-83
2022/11/24 08:13:28;;;;;;;4.63;3.03;;;;;;;8.26;69.48;100756.03;4953099;28;20121;-80
2022/11/24 08:15:54;;;;;;;2.53;1.85;;;;;;;8.29;69.57;100750.75;4969223;28;20041;-91
2022/11/24 08:18:21;;;;;;;3.85;3.05;;;;;;;8.22;68.31;100764.75;4989744;28;20030;-94
2022/11/24 08:20:46;;;;;;;1.80;1.63;;;;;;;8.28;68.95;100761.13;4971913;28;20047;-86
2022/11/24 08:23:12;;;;;;;3.40;2.28;;;;;;;8.40;69.37;100765.00;4967648;28;20444;-94
2022/11/24 08:25:38;;;;;;;2.05;1.42;;;;;;;8.10;68.71;100705.09;4968077;28;20059;-85
2022/11/24 08:28:04;;;;;;;2.70;1.67;;;;;;;8.58;69.47;100749.69;4954249;28;20478;-88
2022/11/24 08:30:29;;;;;;;2.75;1.80;;;;;;;8.53;68.47;100763.63;4954536;28;20042;-88
2022/11/24 08:32:56;;;;;;;2.92;1.73;;;;;;;8.62;69.03;100758.13;4973722;28;20027;-96
2022/11/24 08:35:21;;;;;;;1.90;1.33;;;;;;;8.67;66.90;100761.38;4958859;28;20034;-90
2022/11/24 08:37:47;;;;;;;1.08;0.82;;;;;;;8.51;66.12;100752.53;4973478;28;20033;-93
2022/11/24 08:40:12;;;;;;;3.80;2.33;;;;;;;8.72;66.65;100753.44;4974819;28;20505;-95
2022/11/24 08:42:38;;;;;;;3.55;2.55;;;;;;;8.91;65.66;100757.81;4974588;28;20417;-91
2022/11/24 08:45:04;;;;;;;2.10;1.58;;;;;;;9.03;65.65;100768.53;4974839;28;20050;-91
2022/11/24 08:47:30;;;;;;;1.40;1.15;;;;;;;9.05;66.05;100771.94;4996331;28;20110;-91
2022/11/24 08:49:55;;;;;;;4.78;2.58;;;;;;;9.07;65.14;100767.53;4975103;28;20037;-92
2022/11/24 08:52:21;;;;;;;2.78;1.60;;;;;;;9.13;64.04;100767.28;4975632;28;20022;-94
2022/11/24 08:54:46;;;;;;;2.63;1.67;;;;;;;9.17;65.02;100767.09;4973182;28;20034;-89
2022/11/24 08:57:15;;;;;;;0.60;0.60;;;;;;;9.13;66.19;100760.38;4970396;28;20035;-82
2022/11/24 08:59:40;;;;;;;2.67;1.45;;;;;;;9.36;65.11;100782.69;4952092;28;20020;-82
2022/11/24 09:02:09;;;;;;;1.42;1.10;;;;;;;9.34;64.42;100775.88;4920791;29;20035;-88
2022/11/24 09:04:34;;;;;;;2.17;1.38;;;;;;;9.17;63.65;100750.78;4959872;28;20031;-93
2022/11/24 09:07:00;;;;;;;1.67;1.58;;;;;;;9.34;64.53;100776.75;4973971;28;20551;-85
2022/11/24 09:09:25;;;;;;;4.00;2.38;;;;;;;9.24;62.84;100752.19;4952831;28;20031;-80
2022/11/24 09:11:51;;;;;;;1.05;0.75;;;;;;;8.92;63.23;100758.66;4955239;28;20035;-88
2022/11/24 09:14:16;;;;;;;2.75;2.08;;;;;;;9.17;63.54;100777.44;4955719;28;20041;-91
2022/11/24 09:16:42;;;;;;;3.97;2.75;;;;;;;9.22;64.14;100778.97;4956316;28;20031;-90
2022/11/24 09:19:08;;;;;;;3.85;1.70;;;;;;;9.12;63.67;100769.00;4971041;28;20027;-89
2022/11/24 09:21:37;;;;;;;6.53;2.78;;;;;;;9.24;64.53;100761.66;4987720;28;20124;-89
2022/11/24 09:24:03;;;;;;;2.15;1.48;;;;;;;9.21;63.90;100754.91;4967977;28;20502;-86
2022/11/24 09:26:30;;;;;;;4.80;2.42;;;;;;;9.53;64.70;100768.22;4959053;28;20023;-93
2022/11/24 09:28:56;;;;;;;3.25;1.40;;;;;;;9.45;63.79;100761.63;4970548;28;20508;-89
2022/11/24 09:31:24;;;;;;;1.35;1.25;;;;;;;9.35;62.59;100739.69;4970981;28;20118;-85
2022/11/24 09:33:49;;;;;;;5.47;2.88;;;;;;;9.67;62.44;100768.47;4971779;28;20031;-90
2022/11/24 09:36:15;;;;;;;3.17;2.13;;;;;;;9.67;60.96;100750.41;4987235;28;20472;-86
2022/11/24 09:38:40;;;;;;;3.40;2.25;;;;;;;9.94;62.50;100759.53;4989708;28;20029;-91
2022/11/24 09:41:43;;;;;;;5.63;2.63;;;;;;;9.94;61.79;100769.88;4972903;28;20112;-87
2022/11/24 09:44:09;;;;;;;6.10;2.47;;;;;;;9.73;60.89;100737.19;4987489;28;20049;-88
2022/11/24 09:46:55;;;;;;;4.93;2.97;;;;;;;9.83;61.42;100761.72;4973093;28;20023;-89
2022/11/24 09:49:26;;;;;;;4.03;1.85;;;;;;;9.62;62.26;100747.16;4972660;28;20023;-81
2022/11/24 09:51:52;;;;;;;3.78;2.92;;;;;;;9.86;62.36;100751.28;4970814;28;20038;-84
2022/11/24 09:54:19;;;;;;;5.70;3.85;;;;;;;10.14;61.70;100768.16;4971593;28;20042;-86
2022/11/24 09:56:45;;;;;;;3.53;2.45;;;;;;;10.27;60.04;100771.88;4967377;28;20039;-86
2022/11/24 09:59:20;;;;;;;3.25;2.03;;;;;;;10.28;59.52;100763.22;4936840;29;20055;-86
2022/11/24 10:01:46;;;;;;;2.30;1.90;;;;;;;10.16;59.69;100766.31;4951914;29;20034;-86
2022/11/24 10:04:25;;;;;;;3.53;2.03;;;;;;;10.11;59.64;100786.34;4937574;28;20023;-88
2022/11/24 10:07:02;;;;;;;2.25;1.45;;;;;;;10.05;58.55;100777.16;4987331;28;20026;-92
2022/11/24 10:09:46;;;;;;;9.52;2.55;;;;;;;10.02;60.30;100780.69;4972123;28;20121;-90
2022/11/24 10:12:29;;;;;;;7.75;1.88;;;;;;;10.00;59.20;100779.91;4969775;28;20094;-83
2022/11/24 10:15:21;;;;;;;3.65;2.30;;;;;;;10.04;60.51;100773.72;4970323;28;20027;-84
2022/11/24 10:18:10;;;;;;;5.05;2.53;;;;;;;10.03;60.71;100768.63;4971587;28;20023;-85
2022/11/24 10:20:59;;;;;;;2.38;1.17;;;;;;;10.18;60.11;100767.09;4970908;28;20035;-91
2022/11/24 10:23:28;;;;;;;4.68;2.63;;;;;;;10.40;58.55;100775.56;4968287;28;20563;-89
2022/11/24 10:25:55;;;;;;;7.25;3.83;;;;;;;10.54;58.66;100773.22;4968994;28;20026;-83
2022/11/24 10:28:21;;;;;;;4.18;2.45;;;;;;;10.62;57.96;100784.03;4970791;28;20066;-93
2022/11/24 10:30:46;;;;;;;4.95;2.78;;;;;;;10.45;57.38;100771.03;4968832;28;20118;-83
2022/11/24 10:33:20;;;;;;;4.20;3.05;;;;;;;10.20;59.06;100778.19;4967544;28;20035;-81
2022/11/24 10:35:52;;;;;;;3.75;2.47;;;;;;;10.22;57.92;100787.59;4961319;28;20034;-81
2022/11/24 10:38:50;;;;;;;;;;;;;;;10.20;60.13;100781.63;4985119;28;20523;-89
2022/11/24 10:41:19;;;;;;;4.78;2.53;;;;;;;9.94;58.78;100775.03;4969613;28;19920;-88
2022/11/24 10:43:44;;;;;;;6.72;4.05;;;;;;;9.82;59.60;100767.78;4973449;28;20050;-86
2022/11/24 10:46:13;;;;;;;3.75;2.08;;;;;;;9.87;58.98;100755.53;4971290;28;20042;-91
2022/11/24 10:48:48;;;;;;;9.18;4.38;;;;;;;9.92;59.14;100755.31;4953479;28;20493;-84
2022/11/24 10:51:29;;;;;;;4.05;2.40;;;;;;;9.98;58.40;100745.56;4970456;28;20501;-83
2022/11/24 10:53:57;;;;;;;5.22;2.50;;;;;;;9.93;59.67;100747.53;4986888;28;20496;-86
2022/11/24 10:56:22;;;;;;;1.98;1.50;;;;;;;9.82;58.94;100736.78;4969681;28;20026;-85
2022/11/24 10:58:48;;;;;;;17.52;1.83;;;;;;;9.98;58.87;100757.63;4970234;28;20070;-83
2022/11/24 11:01:13;;;;;;;7.03;2.38;;;;;;;10.14;59.30;100763.81;4969061;28;20038;-82
2022/11/24 11:03:46;;;;;;;2.08;1.63;;;;;;;9.94;58.72;100740.59;4971426;28;20098;-83
2022/11/24 11:06:33;;;;;;;1.80;1.35;;;;;;;9.94;58.52;100751.78;4954100;28;20146;-83
2022/11/24 11:09:05;;;;;;;2.88;1.52;;;;;;;9.77;58.43;100726.66;4971286;28;20109;-85
2022/11/24 11:11:30;;;;;;;4.97;2.03;;;;;;;9.96;58.27;100749.97;4971424;28;20471;-85
2022/11/24 11:14:03;;;;;;;3.75;1.77;;;;;;;10.06;58.09;100752.97;4954517;28;20026;-95
2022/11/24 11:16:40;;;;;;;6.72;4.50;;;;;;;10.13;58.90;100763.84;4970471;28;20058;-86
2022/11/24 11:19:25;;;;;;;5.53;2.17;;;;;;;9.90;59.23;100759.72;4971364;28;20034;-86
2022/11/24 11:22:05;;;;;;;3.08;1.83;;;;;;;9.88;60.25;100744.28;4971475;28;20038;-95
2022/11/24 11:24:30;;;;;;;4.40;2.25;;;;;;;9.91;59.75;100732.97;4953077;28;20559;-87
2022/11/24 11:27:04;;;;;;;10.43;5.72;;;;;;;10.27;59.94;100756.38;4970100;28;20038;-92
2022/11/24 11:29:29;;;;;;;6.03;2.88;;;;;;;10.25;59.93;100753.84;4970205;28;20077;-87
2022/11/24 11:32:03;;;;;;;4.63;2.72;;;;;;;10.01;60.54;100709.22;4954676;28;20062;-88
2022/11/24 11:34:40;;;;;;;6.85;3.03;;;;;;;10.44;59.55;100758.19;4969734;28;20030;-86
2022/11/24 11:37:05;;;;;;;3.15;2.20;;;;;;;10.30;58.98;100757.06;4955801;28;20412;-89